sensor_id;sensor_type;location;lat;lon;timestamp;P1;durP1;ratioP1;P2;durP2;ratioP2
16824;SDS011;8529;48.108;-1.706;2023-07-24T00:01:57;6.63;;;2.40;;
16824;SDS011;8529;48.108;-1.706;2023-07-24T00:04:24;5.10;;;2.40;;
16824;SDS011;8529;48.108;-1.706;2023-07-24T00:06:51;5.75;;;2.13;;
16824;SDS011;8529;48.108;-1.706;2023-07-24T00:09:21;4.20;;;2.40;;
16824;SDS011;8529;48.108;-1.706;2023-07-24T00:11:48;4.93;;;2.22;;
16824;SDS011;8529;48.108;-1.706;2023-07-24T00:14:15;2.47;;;1.75;;
16824;SDS011;8529;48.108;-1.706;2023-07-24T00:16:42;6.95;;;2.13;;
16824;SDS011;8529;48.108;-1.706;2023-07-24T00:19:08;4.40;;;1.90;;
16824;SDS011;8529;48.108;-1.706;2023-07-24T00:21:35;4.35;;;2.50;;
16824;SDS011;8529;48.108;-1.706;2023-07-24T00:24:02;5.43;;;2.30;;
16824;SDS011;8529;48.108;-1.706;2023-07-24T00:26:31;5.28;;;2.00;;
16824;SDS011;8529;48.108;-1.706;2023-07-24T00:28:58;2.72;;;1.95;;
16824;SDS011;8529;48.108;-1.706;2023-07-24T00:31:25;5.82;;;2.70;;
16824;SDS011;8529;48.108;-1.706;2023-07-24T00:33:52;5.18;;;2.67;;
16824;SDS011;8529;48.108;-1.706;2023-07-24T00:36:19;3.08;;;2.20;;
16824;SDS011;8529;48.108;-1.706;2023-07-24T00:38:46;3.78;;;2.40;;
16824;SDS011;8529;48.108;-1.706;2023-07-24T00:41:13;5.88;;;2.47;;
16824;SDS011;8529;48.108;-1.706;2023-07-24T00:43:41;5.47;;;2.22;;
16824;SDS011;8529;48.108;-1.706;2023-07-24T00:46:08;3.28;;;2.03;;
16824;SDS011;8529;48.108;-1.706;2023-07-24T00:48:36;4.82;;;2.25;;
16824;SDS011;8529;48.108;-1.706;2023-07-24T00:51:03;4.25;;;2.55;;
16824;SDS011;8529;48.108;-1.706;2023-07-24T00:53:32;4.00;;;2.88;;
16824;SDS011;8529;48.108;-1.706;2023-07-24T00:55:59;5.00;;;2.40;;
16824;SDS011;8529;48.108;-1.706;2023-07-24T00:58:25;4.90;;;2.47;;
16824;SDS011;8529;48.108;-1.706;2023-07-24T01:00:54;4.90;;;2.38;;
16824;SDS011;8529;48.108;-1.706;2023-07-24T01:03:21;7.30;;;2.55;;
16824;SDS011;8529;48.108;-1.706;2023-07-24T01:05:52;4.95;;;2.75;;
16824;SDS011;8529;48.108;-1.706;2023-07-24T01:08:21;4.95;;;2.40;;
16824;SDS011;8529;48.108;-1.706;2023-07-24T01:10:48;5.30;;;2.65;;
16824;SDS011;8529;48.108;-1.706;2023-07-24T01:13:15;4.45;;;2.42;;
16824;SDS011;8529;48.108;-1.706;2023-07-24T01:15:50;4.28;;;2.40;;
16824;SDS011;8529;48.108;-1.706;2023-07-24T01:18:22;6.10;;;2.83;;
16824;SDS011;8529;48.108;-1.706;2023-07-24T01:20:51;5.88;;;3.25;;
16824;SDS011;8529;48.108;-1.706;2023-07-24T01:23:23;4.45;;;2.83;;
16824;SDS011;8529;48.108;-1.706;2023-07-24T01:26:05;3.95;;;3.05;;
16824;SDS011;8529;48.108;-1.706;2023-07-24T01:28:34;6.07;;;2.50;;
16824;SDS011;8529;48.108;-1.706;2023-07-24T01:31:00;4.00;;;2.58;;
16824;SDS011;8529;48.108;-1.706;2023-07-24T01:33:27;7.43;;;3.25;;
16824;SDS011;8529;48.108;-1.706;2023-07-24T01:35:57;4.57;;;2.65;;
16824;SDS011;8529;48.108;-1.706;2023-07-24T01:38:25;7.15;;;3.13;;
16824;SDS011;8529;48.108;-1.706;2023-07-24T01:40:53;4.70;;;2.80;;
16824;SDS011;8529;48.108;-1.706;2023-07-24T01:43:22;4.72;;;3.40;;
16824;SDS011;8529;48.108;-1.706;2023-07-24T01:45:52;4.85;;;3.35;;
16824;SDS011;8529;48.108;-1.706;2023-07-24T01:48:18;5.68;;;2.88;;
16824;SDS011;8529;48.108;-1.706;2023-07-24T01:50:45;7.13;;;3.10;;
16824;SDS011;8529;48.108;-1.706;2023-07-24T01:53:12;6.65;;;3.25;;
16824;SDS011;8529;48.108;-1.706;2023-07-24T01:55:39;6.80;;;3.00;;
16824;SDS011;8529;48.108;-1.706;2023-07-24T01:58:06;7.25;;;3.33;;
16824;SDS011;8529;48.108;-1.706;2023-07-24T02:00:34;7.15;;;3.38;;
16824;SDS011;8529;48.108;-1.706;2023-07-24T02:03:01;8.20;;;4.10;;
16824;SDS011;8529;48.108;-1.706;2023-07-24T02:05:28;5.70;;;3.42;;
16824;SDS011;8529;48.108;-1.706;2023-07-24T02:07:55;9.30;;;3.33;;
16824;SDS011;8529;48.108;-1.706;2023-07-24T02:10:22;6.60;;;3.72;;
16824;SDS011;8529;48.108;-1.706;2023-07-24T02:12:49;7.57;;;3.70;;
16824;SDS011;8529;48.108;-1.706;2023-07-24T02:15:16;8.18;;;3.35;;
16824;SDS011;8529;48.108;-1.706;2023-07-24T02:17:44;5.55;;;3.33;;
16824;SDS011;8529;48.108;-1.706;2023-07-24T02:20:11;9.50;;;3.67;;
16824;SDS011;8529;48.108;-1.706;2023-07-24T02:22:38;5.88;;;3.70;;
16824;SDS011;8529;48.108;-1.706;2023-07-24T02:25:05;8.15;;;3.60;;
16824;SDS011;8529;48.108;-1.706;2023-07-24T02:27:32;8.65;;;3.53;;
16824;SDS011;8529;48.108;-1.706;2023-07-24T02:29:59;6.32;;;3.55;;
16824;SDS011;8529;48.108;-1.706;2023-07-24T02:32:26;7.65;;;3.63;;
16824;SDS011;8529;48.108;-1.706;2023-07-24T02:34:55;5.32;;;3.05;;
16824;SDS011;8529;48.108;-1.706;2023-07-24T02:37:22;6.65;;;3.67;;
16824;SDS011;8529;48.108;-1.706;2023-07-24T02:39:49;8.75;;;4.00;;
16824;SDS011;8529;48.108;-1.706;2023-07-24T02:42:15;7.25;;;3.47;;
16824;SDS011;8529;48.108;-1.706;2023-07-24T02:44:42;5.05;;;3.25;;
16824;SDS011;8529;48.108;-1.706;2023-07-24T02:47:09;5.20;;;2.90;;
16824;SDS011;8529;48.108;-1.706;2023-07-24T02:49:36;6.75;;;3.00;;
16824;SDS011;8529;48.108;-1.706;2023-07-24T02:52:05;7.03;;;3.38;;
16824;SDS011;8529;48.108;-1.706;2023-07-24T02:54:32;5.35;;;3.15;;
16824;SDS011;8529;48.108;-1.706;2023-07-24T02:56:59;5.85;;;3.53;;
16824;SDS011;8529;48.108;-1.706;2023-07-24T02:59:26;6.55;;;3.55;;
16824;SDS011;8529;48.108;-1.706;2023-07-24T03:01:52;8.07;;;3.58;;
16824;SDS011;8529;48.108;-1.706;2023-07-24T03:04:19;6.35;;;3.42;;
16824;SDS011;8529;48.108;-1.706;2023-07-24T03:06:46;6.47;;;3.08;;
16824;SDS011;8529;48.108;-1.706;2023-07-24T03:09:14;4.45;;;3.00;;
16824;SDS011;8529;48.108;-1.706;2023-07-24T03:11:41;6.30;;;3.38;;
16824;SDS011;8529;48.108;-1.706;2023-07-24T03:14:08;6.00;;;3.10;;
16824;SDS011;8529;48.108;-1.706;2023-07-24T03:16:35;6.40;;;3.33;;
16824;SDS011;8529;48.108;-1.706;2023-07-24T03:19:02;7.85;;;3.13;;
16824;SDS011;8529;48.108;-1.706;2023-07-24T03:21:29;4.38;;;2.55;;
16824;SDS011;8529;48.108;-1.706;2023-07-24T03:23:56;6.65;;;3.20;;
16824;SDS011;8529;48.108;-1.706;2023-07-24T03:26:24;7.55;;;3.10;;
16824;SDS011;8529;48.108;-1.706;2023-07-24T03:28:51;7.00;;;2.88;;
16824;SDS011;8529;48.108;-1.706;2023-07-24T03:31:18;4.50;;;3.03;;
16824;SDS011;8529;48.108;-1.706;2023-07-24T03:33:45;7.63;;;3.10;;
16824;SDS011;8529;48.108;-1.706;2023-07-24T03:36:12;8.82;;;3.42;;
16824;SDS011;8529;48.108;-1.706;2023-07-24T03:38:39;8.70;;;3.53;;
16824;SDS011;8529;48.108;-1.706;2023-07-24T03:41:05;5.50;;;3.03;;
16824;SDS011;8529;48.108;-1.706;2023-07-24T03:43:34;5.07;;;3.10;;
16824;SDS011;8529;48.108;-1.706;2023-07-24T03:46:01;5.15;;;2.63;;
16824;SDS011;8529;48.108;-1.706;2023-07-24T03:48:27;4.90;;;2.88;;
16824;SDS011;8529;48.108;-1.706;2023-07-24T03:50:57;6.47;;;2.92;;
16824;SDS011;8529;48.108;-1.706;2023-07-24T03:53:26;8.50;;;2.97;;
16824;SDS011;8529;48.108;-1.706;2023-07-24T03:55:53;5.47;;;2.92;;
16824;SDS011;8529;48.108;-1.706;2023-07-24T03:58:20;11.30;;;4.00;;
16824;SDS011;8529;48.108;-1.706;2023-07-24T04:00:49;5.57;;;2.97;;
16824;SDS011;8529;48.108;-1.706;2023-07-24T04:03:16;6.38;;;2.45;;
16824;SDS011;8529;48.108;-1.706;2023-07-24T04:05:43;4.00;;;2.58;;
16824;SDS011;8529;48.108;-1.706;2023-07-24T04:08:10;5.50;;;2.80;;
16824;SDS011;8529;48.108;-1.706;2023-07-24T04:10:37;6.00;;;3.03;;
16824;SDS011;8529;48.108;-1.706;2023-07-24T04:13:04;5.50;;;2.72;;
16824;SDS011;8529;48.108;-1.706;2023-07-24T04:15:30;8.13;;;2.70;;
16824;SDS011;8529;48.108;-1.706;2023-07-24T04:17:59;4.70;;;2.60;;
16824;SDS011;8529;48.108;-1.706;2023-07-24T04:20:26;4.22;;;2.42;;
16824;SDS011;8529;48.108;-1.706;2023-07-24T04:22:53;7.95;;;2.78;;
16824;SDS011;8529;48.108;-1.706;2023-07-24T04:25:18;4.93;;;2.40;;
16824;SDS011;8529;48.108;-1.706;2023-07-24T04:27:45;7.22;;;2.50;;
16824;SDS011;8529;48.108;-1.706;2023-07-24T04:30:12;5.22;;;2.47;;
16824;SDS011;8529;48.108;-1.706;2023-07-24T04:32:39;5.20;;;2.78;;
16824;SDS011;8529;48.108;-1.706;2023-07-24T04:35:08;6.90;;;3.53;;
16824;SDS011;8529;48.108;-1.706;2023-07-24T04:37:35;6.53;;;2.53;;
16824;SDS011;8529;48.108;-1.706;2023-07-24T04:40:02;7.15;;;3.10;;
16824;SDS011;8529;48.108;-1.706;2023-07-24T04:42:29;5.25;;;2.58;;
16824;SDS011;8529;48.108;-1.706;2023-07-24T04:44:56;5.80;;;2.90;;
16824;SDS011;8529;48.108;-1.706;2023-07-24T04:47:23;6.15;;;2.47;;
16824;SDS011;8529;48.108;-1.706;2023-07-24T04:49:50;5.40;;;2.67;;
16824;SDS011;8529;48.108;-1.706;2023-07-24T04:52:18;4.35;;;2.58;;
16824;SDS011;8529;48.108;-1.706;2023-07-24T04:54:45;6.47;;;2.92;;
16824;SDS011;8529;48.108;-1.706;2023-07-24T04:57:12;6.57;;;2.78;;
16824;SDS011;8529;48.108;-1.706;2023-07-24T04:59:39;4.68;;;2.75;;
16824;SDS011;8529;48.108;-1.706;2023-07-24T05:02:06;5.40;;;2.40;;
16824;SDS011;8529;48.108;-1.706;2023-07-24T05:04:33;21.25;;;3.33;;
16824;SDS011;8529;48.108;-1.706;2023-07-24T05:06:59;4.78;;;3.03;;
16824;SDS011;8529;48.108;-1.706;2023-07-24T05:09:28;5.43;;;3.40;;
16824;SDS011;8529;48.108;-1.706;2023-07-24T05:11:55;9.02;;;3.20;;
16824;SDS011;8529;48.108;-1.706;2023-07-24T05:14:21;8.48;;;3.05;;
16824;SDS011;8529;48.108;-1.706;2023-07-24T05:16:48;6.82;;;2.88;;
16824;SDS011;8529;48.108;-1.706;2023-07-24T05:19:15;4.22;;;2.78;;
16824;SDS011;8529;48.108;-1.706;2023-07-24T05:21:42;8.00;;;3.38;;
16824;SDS011;8529;48.108;-1.706;2023-07-24T05:24:09;7.80;;;3.22;;
16824;SDS011;8529;48.108;-1.706;2023-07-24T05:26:37;7.70;;;2.72;;
16824;SDS011;8529;48.108;-1.706;2023-07-24T05:29:04;6.55;;;2.92;;
16824;SDS011;8529;48.108;-1.706;2023-07-24T05:31:31;6.07;;;3.20;;
16824;SDS011;8529;48.108;-1.706;2023-07-24T05:33:59;5.75;;;3.42;;
16824;SDS011;8529;48.108;-1.706;2023-07-24T05:36:26;10.27;;;3.83;;
16824;SDS011;8529;48.108;-1.706;2023-07-24T05:38:53;5.78;;;3.20;;
16824;SDS011;8529;48.108;-1.706;2023-07-24T05:41:21;7.38;;;2.70;;
16824;SDS011;8529;48.108;-1.706;2023-07-24T05:43:49;9.00;;;3.35;;
16824;SDS011;8529;48.108;-1.706;2023-07-24T05:46:16;6.45;;;3.00;;
16824;SDS011;8529;48.108;-1.706;2023-07-24T05:48:43;8.07;;;2.90;;
16824;SDS011;8529;48.108;-1.706;2023-07-24T05:51:10;7.45;;;3.47;;
16824;SDS011;8529;48.108;-1.706;2023-07-24T05:53:37;5.18;;;2.55;;
16824;SDS011;8529;48.108;-1.706;2023-07-24T05:56:03;7.45;;;2.50;;
16824;SDS011;8529;48.108;-1.706;2023-07-24T05:58:30;6.50;;;3.28;;
16824;SDS011;8529;48.108;-1.706;2023-07-24T06:00:59;6.25;;;3.08;;
16824;SDS011;8529;48.108;-1.706;2023-07-24T06:03:26;10.07;;;2.97;;
16824;SDS011;8529;48.108;-1.706;2023-07-24T06:05:53;5.43;;;2.92;;
16824;SDS011;8529;48.108;-1.706;2023-07-24T06:08:21;7.80;;;3.05;;
16824;SDS011;8529;48.108;-1.706;2023-07-24T06:10:49;5.82;;;3.58;;
16824;SDS011;8529;48.108;-1.706;2023-07-24T06:13:16;8.52;;;3.50;;
16824;SDS011;8529;48.108;-1.706;2023-07-24T06:15:43;10.88;;;3.10;;
16824;SDS011;8529;48.108;-1.706;2023-07-24T06:18:12;4.32;;;2.85;;
16824;SDS011;8529;48.108;-1.706;2023-07-24T06:20:38;7.25;;;2.90;;
16824;SDS011;8529;48.108;-1.706;2023-07-24T06:23:05;7.18;;;2.80;;
16824;SDS011;8529;48.108;-1.706;2023-07-24T06:25:32;8.45;;;3.30;;
16824;SDS011;8529;48.108;-1.706;2023-07-24T06:27:59;6.03;;;2.65;;
16824;SDS011;8529;48.108;-1.706;2023-07-24T06:30:26;4.63;;;2.55;;
16824;SDS011;8529;48.108;-1.706;2023-07-24T06:32:53;7.97;;;2.83;;
16824;SDS011;8529;48.108;-1.706;2023-07-24T06:35:22;4.82;;;2.90;;
16824;SDS011;8529;48.108;-1.706;2023-07-24T06:37:49;4.40;;;2.63;;
16824;SDS011;8529;48.108;-1.706;2023-07-24T06:40:16;4.38;;;2.28;;
16824;SDS011;8529;48.108;-1.706;2023-07-24T06:42:42;5.47;;;2.30;;
16824;SDS011;8529;48.108;-1.706;2023-07-24T06:45:09;6.28;;;2.42;;
16824;SDS011;8529;48.108;-1.706;2023-07-24T06:47:36;9.45;;;3.28;;
16824;SDS011;8529;48.108;-1.706;2023-07-24T06:50:04;5.78;;;2.78;;
16824;SDS011;8529;48.108;-1.706;2023-07-24T06:52:33;6.18;;;2.47;;
16824;SDS011;8529;48.108;-1.706;2023-07-24T06:55:00;8.00;;;3.00;;
16824;SDS011;8529;48.108;-1.706;2023-07-24T06:57:27;6.90;;;2.65;;
16824;SDS011;8529;48.108;-1.706;2023-07-24T06:59:54;7.45;;;2.97;;
16824;SDS011;8529;48.108;-1.706;2023-07-24T07:02:20;5.90;;;2.63;;
16824;SDS011;8529;48.108;-1.706;2023-07-24T07:04:47;7.38;;;3.15;;
16824;SDS011;8529;48.108;-1.706;2023-07-24T07:07:14;7.53;;;3.45;;
16824;SDS011;8529;48.108;-1.706;2023-07-24T07:09:42;9.45;;;3.13;;
16824;SDS011;8529;48.108;-1.706;2023-07-24T07:12:09;6.28;;;2.97;;
16824;SDS011;8529;48.108;-1.706;2023-07-24T07:14:36;6.45;;;2.53;;
16824;SDS011;8529;48.108;-1.706;2023-07-24T07:17:03;5.43;;;2.50;;
16824;SDS011;8529;48.108;-1.706;2023-07-24T07:19:30;6.95;;;2.60;;
16824;SDS011;8529;48.108;-1.706;2023-07-24T07:21:57;7.13;;;2.95;;
16824;SDS011;8529;48.108;-1.706;2023-07-24T07:24:24;6.88;;;2.70;;
16824;SDS011;8529;48.108;-1.706;2023-07-24T07:26:52;4.60;;;2.33;;
16824;SDS011;8529;48.108;-1.706;2023-07-24T07:29:19;7.35;;;3.30;;
16824;SDS011;8529;48.108;-1.706;2023-07-24T07:31:46;5.15;;;2.60;;
16824;SDS011;8529;48.108;-1.706;2023-07-24T07:34:14;6.90;;;3.15;;
16824;SDS011;8529;48.108;-1.706;2023-07-24T07:36:41;4.20;;;2.22;;
16824;SDS011;8529;48.108;-1.706;2023-07-24T07:39:07;4.80;;;2.33;;
16824;SDS011;8529;48.108;-1.706;2023-07-24T07:41:34;6.15;;;2.15;;
16824;SDS011;8529;48.108;-1.706;2023-07-24T07:44:03;7.13;;;2.67;;
16824;SDS011;8529;48.108;-1.706;2023-07-24T07:46:30;4.68;;;2.75;;
16824;SDS011;8529;48.108;-1.706;2023-07-24T07:48:57;5.40;;;3.05;;
16824;SDS011;8529;48.108;-1.706;2023-07-24T07:51:24;6.93;;;2.60;;
16824;SDS011;8529;48.108;-1.706;2023-07-24T07:53:51;4.72;;;2.25;;
16824;SDS011;8529;48.108;-1.706;2023-07-24T07:56:18;4.70;;;2.38;;
16824;SDS011;8529;48.108;-1.706;2023-07-24T07:58:45;5.50;;;2.28;;
16824;SDS011;8529;48.108;-1.706;2023-07-24T08:01:13;4.45;;;2.38;;
16824;SDS011;8529;48.108;-1.706;2023-07-24T08:03:40;6.05;;;2.55;;
16824;SDS011;8529;48.108;-1.706;2023-07-24T08:06:07;5.07;;;2.38;;
16824;SDS011;8529;48.108;-1.706;2023-07-24T08:08:34;5.63;;;2.75;;
16824;SDS011;8529;48.108;-1.706;2023-07-24T08:11:03;3.90;;;2.45;;
16824;SDS011;8529;48.108;-1.706;2023-07-24T08:13:31;6.22;;;2.60;;
16824;SDS011;8529;48.108;-1.706;2023-07-24T08:15:58;6.30;;;2.63;;
16824;SDS011;8529;48.108;-1.706;2023-07-24T08:18:28;5.20;;;2.33;;
16824;SDS011;8529;48.108;-1.706;2023-07-24T08:20:55;5.60;;;2.65;;
16824;SDS011;8529;48.108;-1.706;2023-07-24T08:23:22;5.45;;;2.20;;
16824;SDS011;8529;48.108;-1.706;2023-07-24T08:25:52;10.30;;;3.90;;
16824;SDS011;8529;48.108;-1.706;2023-07-24T08:28:19;3.97;;;1.90;;
16824;SDS011;8529;48.108;-1.706;2023-07-24T08:30:46;6.00;;;2.40;;
16824;SDS011;8529;48.108;-1.706;2023-07-24T08:33:21;5.57;;;2.20;;
16824;SDS011;8529;48.108;-1.706;2023-07-24T08:35:58;3.63;;;1.98;;
16824;SDS011;8529;48.108;-1.706;2023-07-24T08:38:26;2.38;;;1.70;;
16824;SDS011;8529;48.108;-1.706;2023-07-24T08:40:59;4.78;;;2.05;;
16824;SDS011;8529;48.108;-1.706;2023-07-24T08:43:27;4.40;;;2.30;;
16824;SDS011;8529;48.108;-1.706;2023-07-24T08:45:56;4.03;;;2.10;;
16824;SDS011;8529;48.108;-1.706;2023-07-24T08:48:25;2.65;;;1.65;;
16824;SDS011;8529;48.108;-1.706;2023-07-24T08:50:53;5.00;;;2.30;;
16824;SDS011;8529;48.108;-1.706;2023-07-24T08:53:21;6.22;;;2.20;;
16824;SDS011;8529;48.108;-1.706;2023-07-24T08:55:50;4.38;;;1.65;;
16824;SDS011;8529;48.108;-1.706;2023-07-24T08:58:20;4.40;;;1.77;;
16824;SDS011;8529;48.108;-1.706;2023-07-24T09:00:48;3.30;;;1.88;;
16824;SDS011;8529;48.108;-1.706;2023-07-24T09:03:16;3.10;;;1.75;;
16824;SDS011;8529;48.108;-1.706;2023-07-24T09:05:43;3.25;;;1.85;;
16824;SDS011;8529;48.108;-1.706;2023-07-24T09:08:10;3.75;;;1.45;;
16824;SDS011;8529;48.108;-1.706;2023-07-24T09:10:38;3.28;;;1.92;;
16824;SDS011;8529;48.108;-1.706;2023-07-24T09:13:05;6.32;;;1.85;;
16824;SDS011;8529;48.108;-1.706;2023-07-24T09:15:39;3.08;;;1.75;;
16824;SDS011;8529;48.108;-1.706;2023-07-24T09:18:06;4.50;;;2.08;;
16824;SDS011;8529;48.108;-1.706;2023-07-24T09:20:37;4.90;;;1.75;;
16824;SDS011;8529;48.108;-1.706;2023-07-24T09:23:05;3.92;;;1.73;;
16824;SDS011;8529;48.108;-1.706;2023-07-24T09:25:33;3.33;;;1.60;;
16824;SDS011;8529;48.108;-1.706;2023-07-24T09:28:08;4.55;;;1.60;;
16824;SDS011;8529;48.108;-1.706;2023-07-24T09:30:36;4.55;;;1.40;;
16824;SDS011;8529;48.108;-1.706;2023-07-24T09:33:03;3.50;;;2.05;;
16824;SDS011;8529;48.108;-1.706;2023-07-24T09:35:30;7.05;;;1.77;;
16824;SDS011;8529;48.108;-1.706;2023-07-24T09:38:04;2.58;;;1.60;;
16824;SDS011;8529;48.108;-1.706;2023-07-24T09:40:39;3.33;;;1.58;;
16824;SDS011;8529;48.108;-1.706;2023-07-24T09:43:21;4.57;;;1.35;;
16824;SDS011;8529;48.108;-1.706;2023-07-24T09:45:49;2.70;;;1.50;;
16824;SDS011;8529;48.108;-1.706;2023-07-24T09:48:17;1.98;;;1.20;;
16824;SDS011;8529;48.108;-1.706;2023-07-24T09:50:46;3.13;;;1.80;;
16824;SDS011;8529;48.108;-1.706;2023-07-24T09:53:17;2.00;;;1.42;;
16824;SDS011;8529;48.108;-1.706;2023-07-24T09:55:49;2.92;;;1.58;;
16824;SDS011;8529;48.108;-1.706;2023-07-24T09:58:20;2.92;;;1.83;;
16824;SDS011;8529;48.108;-1.706;2023-07-24T10:00:48;2.08;;;1.38;;
16824;SDS011;8529;48.108;-1.706;2023-07-24T10:03:16;3.08;;;1.60;;
16824;SDS011;8529;48.108;-1.706;2023-07-24T10:05:43;6.05;;;1.63;;
16824;SDS011;8529;48.108;-1.706;2023-07-24T10:08:10;1.73;;;1.25;;
16824;SDS011;8529;48.108;-1.706;2023-07-24T10:10:38;4.22;;;1.50;;
16824;SDS011;8529;48.108;-1.706;2023-07-24T10:13:05;3.22;;;1.27;;
16824;SDS011;8529;48.108;-1.706;2023-07-24T10:15:37;2.10;;;1.10;;
16824;SDS011;8529;48.108;-1.706;2023-07-24T10:18:05;2.78;;;1.15;;
16824;SDS011;8529;48.108;-1.706;2023-07-24T10:20:33;1.83;;;1.30;;
16824;SDS011;8529;48.108;-1.706;2023-07-24T10:23:01;3.88;;;1.45;;
16824;SDS011;8529;48.108;-1.706;2023-07-24T10:25:29;3.00;;;1.38;;
16824;SDS011;8529;48.108;-1.706;2023-07-24T10:28:00;3.05;;;1.23;;
16824;SDS011;8529;48.108;-1.706;2023-07-24T10:30:31;1.83;;;1.10;;
16824;SDS011;8529;48.108;-1.706;2023-07-24T10:33:09;2.47;;;1.30;;
16824;SDS011;8529;48.108;-1.706;2023-07-24T10:35:37;1.23;;;1.10;;
16824;SDS011;8529;48.108;-1.706;2023-07-24T10:38:08;3.35;;;1.63;;
16824;SDS011;8529;48.108;-1.706;2023-07-24T10:40:36;2.35;;;1.08;;
16824;SDS011;8529;48.108;-1.706;2023-07-24T10:43:06;1.33;;;1.00;;
16824;SDS011;8529;48.108;-1.706;2023-07-24T10:45:45;1.17;;;1.00;;
16824;SDS011;8529;48.108;-1.706;2023-07-24T10:48:15;3.50;;;1.10;;
16824;SDS011;8529;48.108;-1.706;2023-07-24T10:50:42;1.98;;;1.30;;
16824;SDS011;8529;48.108;-1.706;2023-07-24T10:53:10;2.58;;;1.02;;
16824;SDS011;8529;48.108;-1.706;2023-07-24T10:55:37;7.07;;;1.80;;
16824;SDS011;8529;48.108;-1.706;2023-07-24T10:58:05;2.58;;;1.13;;
16824;SDS011;8529;48.108;-1.706;2023-07-24T11:00:33;2.17;;;1.10;;
16824;SDS011;8529;48.108;-1.706;2023-07-24T11:03:00;1.98;;;1.20;;
16824;SDS011;8529;48.108;-1.706;2023-07-24T11:05:29;2.30;;;1.13;;
16824;SDS011;8529;48.108;-1.706;2023-07-24T11:07:56;1.88;;;1.30;;
16824;SDS011;8529;48.108;-1.706;2023-07-24T11:10:23;1.98;;;1.33;;
16824;SDS011;8529;48.108;-1.706;2023-07-24T11:12:50;4.72;;;1.15;;
16824;SDS011;8529;48.108;-1.706;2023-07-24T11:15:23;1.92;;;1.27;;
16824;SDS011;8529;48.108;-1.706;2023-07-24T11:17:53;3.08;;;1.10;;
16824;SDS011;8529;48.108;-1.706;2023-07-24T11:20:20;2.72;;;0.88;;
16824;SDS011;8529;48.108;-1.706;2023-07-24T11:22:48;3.05;;;0.90;;
16824;SDS011;8529;48.108;-1.706;2023-07-24T11:25:15;1.00;;;0.90;;
16824;SDS011;8529;48.108;-1.706;2023-07-24T11:27:42;3.05;;;1.00;;
16824;SDS011;8529;48.108;-1.706;2023-07-24T11:30:10;2.65;;;1.02;;
16824;SDS011;8529;48.108;-1.706;2023-07-24T11:32:38;1.35;;;0.95;;
16824;SDS011;8529;48.108;-1.706;2023-07-24T11:35:06;1.33;;;1.00;;
16824;SDS011;8529;48.108;-1.706;2023-07-24T11:37:34;1.45;;;1.10;;
16824;SDS011;8529;48.108;-1.706;2023-07-24T11:40:03;1.33;;;0.90;;
16824;SDS011;8529;48.108;-1.706;2023-07-24T11:42:38;2.05;;;0.80;;
16824;SDS011;8529;48.108;-1.706;2023-07-24T11:45:06;3.20;;;1.10;;
16824;SDS011;8529;48.108;-1.706;2023-07-24T11:47:45;2.00;;;1.30;;
16824;SDS011;8529;48.108;-1.706;2023-07-24T11:50:13;2.35;;;1.15;;
16824;SDS011;8529;48.108;-1.706;2023-07-24T11:52:42;1.98;;;1.00;;
16824;SDS011;8529;48.108;-1.706;2023-07-24T11:55:11;2.05;;;0.75;;
16824;SDS011;8529;48.108;-1.706;2023-07-24T11:57:39;1.15;;;1.00;;
16824;SDS011;8529;48.108;-1.706;2023-07-24T12:00:06;3.22;;;1.10;;
16824;SDS011;8529;48.108;-1.706;2023-07-24T12:02:44;1.38;;;1.02;;
16824;SDS011;8529;48.108;-1.706;2023-07-24T12:05:12;1.92;;;1.00;;
16824;SDS011;8529;48.108;-1.706;2023-07-24T12:07:38;3.33;;;1.13;;
16824;SDS011;8529;48.108;-1.706;2023-07-24T12:10:08;1.77;;;1.08;;
16824;SDS011;8529;48.108;-1.706;2023-07-24T12:12:38;3.53;;;1.30;;
16824;SDS011;8529;48.108;-1.706;2023-07-24T12:15:06;1.80;;;1.40;;
16824;SDS011;8529;48.108;-1.706;2023-07-24T12:17:34;1.30;;;1.00;;
16824;SDS011;8529;48.108;-1.706;2023-07-24T12:20:01;2.35;;;1.42;;
16824;SDS011;8529;48.108;-1.706;2023-07-24T12:22:29;3.03;;;1.25;;
16824;SDS011;8529;48.108;-1.706;2023-07-24T12:24:56;2.63;;;1.25;;
16824;SDS011;8529;48.108;-1.706;2023-07-24T12:27:25;2.72;;;1.65;;
16824;SDS011;8529;48.108;-1.706;2023-07-24T12:29:52;3.70;;;1.45;;
16824;SDS011;8529;48.108;-1.706;2023-07-24T12:32:19;2.03;;;1.23;;
16824;SDS011;8529;48.108;-1.706;2023-07-24T12:34:47;1.92;;;1.08;;
16824;SDS011;8529;48.108;-1.706;2023-07-24T12:37:15;2.35;;;1.05;;
16824;SDS011;8529;48.108;-1.706;2023-07-24T12:39:42;5.63;;;1.63;;
16824;SDS011;8529;48.108;-1.706;2023-07-24T12:42:10;3.70;;;1.42;;
16824;SDS011;8529;48.108;-1.706;2023-07-24T12:44:39;3.50;;;1.77;;
16824;SDS011;8529;48.108;-1.706;2023-07-24T12:47:05;3.70;;;2.13;;
16824;SDS011;8529;48.108;-1.706;2023-07-24T12:49:32;3.55;;;1.80;;
16824;SDS011;8529;48.108;-1.706;2023-07-24T12:52:00;5.40;;;1.85;;
16824;SDS011;8529;48.108;-1.706;2023-07-24T12:54:26;4.22;;;1.52;;
16824;SDS011;8529;48.108;-1.706;2023-07-24T12:56:54;3.17;;;1.60;;
16824;SDS011;8529;48.108;-1.706;2023-07-24T12:59:20;3.97;;;1.67;;
16824;SDS011;8529;48.108;-1.706;2023-07-24T13:01:49;3.10;;;2.83;;
16824;SDS011;8529;48.108;-1.706;2023-07-24T13:04:16;4.15;;;3.83;;
16824;SDS011;8529;48.108;-1.706;2023-07-24T13:06:42;3.85;;;2.30;;
16824;SDS011;8529;48.108;-1.706;2023-07-24T13:09:10;2.42;;;1.45;;
16824;SDS011;8529;48.108;-1.706;2023-07-24T13:11:37;2.47;;;2.22;;
16824;SDS011;8529;48.108;-1.706;2023-07-24T13:14:04;3.03;;;1.58;;
16824;SDS011;8529;48.108;-1.706;2023-07-24T13:16:30;4.03;;;3.70;;
16824;SDS011;8529;48.108;-1.706;2023-07-24T13:18:59;3.78;;;1.85;;
16824;SDS011;8529;48.108;-1.706;2023-07-24T13:21:26;2.55;;;1.88;;
16824;SDS011;8529;48.108;-1.706;2023-07-24T13:23:53;4.28;;;1.83;;
16824;SDS011;8529;48.108;-1.706;2023-07-24T13:26:21;3.47;;;1.40;;
16824;SDS011;8529;48.108;-1.706;2023-07-24T13:28:47;3.80;;;1.63;;
16824;SDS011;8529;48.108;-1.706;2023-07-24T13:31:15;3.15;;;2.30;;
16824;SDS011;8529;48.108;-1.706;2023-07-24T13:33:43;5.13;;;1.75;;
16824;SDS011;8529;48.108;-1.706;2023-07-24T13:36:12;5.60;;;2.40;;
16824;SDS011;8529;48.108;-1.706;2023-07-24T13:38:39;6.00;;;2.50;;
16824;SDS011;8529;48.108;-1.706;2023-07-24T13:41:06;6.13;;;2.17;;
16824;SDS011;8529;48.108;-1.706;2023-07-24T13:43:34;5.22;;;2.53;;
16824;SDS011;8529;48.108;-1.706;2023-07-24T13:46:01;6.25;;;2.40;;
16824;SDS011;8529;48.108;-1.706;2023-07-24T13:48:28;5.45;;;2.45;;
16824;SDS011;8529;48.108;-1.706;2023-07-24T13:50:55;6.07;;;2.50;;
16824;SDS011;8529;48.108;-1.706;2023-07-24T13:53:24;5.13;;;2.35;;
16824;SDS011;8529;48.108;-1.706;2023-07-24T13:55:51;3.35;;;2.30;;
16824;SDS011;8529;48.108;-1.706;2023-07-24T13:58:18;5.78;;;2.85;;
16824;SDS011;8529;48.108;-1.706;2023-07-24T14:00:45;3.03;;;2.17;;
16824;SDS011;8529;48.108;-1.706;2023-07-24T14:03:11;2.97;;;2.10;;
16824;SDS011;8529;48.108;-1.706;2023-07-24T14:05:38;4.05;;;2.30;;
16824;SDS011;8529;48.108;-1.706;2023-07-24T14:08:06;3.70;;;3.03;;
16824;SDS011;8529;48.108;-1.706;2023-07-24T14:10:35;4.20;;;3.90;;
16824;SDS011;8529;48.108;-1.706;2023-07-24T14:13:02;5.38;;;2.00;;
16824;SDS011;8529;48.108;-1.706;2023-07-24T14:15:29;3.28;;;2.00;;
16824;SDS011;8529;48.108;-1.706;2023-07-24T14:17:56;3.15;;;2.05;;
16824;SDS011;8529;48.108;-1.706;2023-07-24T14:20:23;5.57;;;2.22;;
16824;SDS011;8529;48.108;-1.706;2023-07-24T14:22:50;5.07;;;3.28;;
16824;SDS011;8529;48.108;-1.706;2023-07-24T14:25:16;2.67;;;1.75;;
16824;SDS011;8529;48.108;-1.706;2023-07-24T14:27:45;2.55;;;2.05;;
16824;SDS011;8529;48.108;-1.706;2023-07-24T14:30:12;3.17;;;2.33;;
16824;SDS011;8529;48.108;-1.706;2023-07-24T14:32:38;2.03;;;1.27;;
16824;SDS011;8529;48.108;-1.706;2023-07-24T14:35:06;2.75;;;1.20;;
16824;SDS011;8529;48.108;-1.706;2023-07-24T14:37:33;1.75;;;1.20;;
16824;SDS011;8529;48.108;-1.706;2023-07-24T14:40:00;1.25;;;1.08;;
16824;SDS011;8529;48.108;-1.706;2023-07-24T14:42:27;1.67;;;1.35;;
16824;SDS011;8529;48.108;-1.706;2023-07-24T14:44:56;2.28;;;1.30;;
16824;SDS011;8529;48.108;-1.706;2023-07-24T14:47:27;3.58;;;2.60;;
16824;SDS011;8529;48.108;-1.706;2023-07-24T14:49:54;3.45;;;3.00;;
16824;SDS011;8529;48.108;-1.706;2023-07-24T14:52:21;3.17;;;2.83;;